Time;durP1;ratioP1;P1;durP2;ratioP2;P2;SDS_P1;SDS_P2;PMS_P1;PMS_P2;Temp;Humidity;BMP_temperature;BMP_pressure;BME280_temperature;BME280_humidity;BME280_pressure;Samples;Min_cycle;Max_cycle;Signal;HPM_P1;HPM_P2
2023/01/30 00:00:33;;;;;;;244.00;233.60;;;3.60;99.90;;;;;;4983996;28;20471;-80
2023/01/30 00:03:00;;;;;;;254.23;243.00;;;3.60;99.90;;;;;;4996808;28;20461;-81
2023/01/30 00:05:27;;;;;;;274.93;263.90;;;3.80;99.90;;;;;;5003793;28;20814;-80
2023/01/30 00:07:54;;;;;;;314.00;301.10;;;3.70;99.90;;;;;;5004003;28;20470;-81
2023/01/30 00:10:20;;;;;;;317.23;304.17;;;3.70;99.90;;;;;;5003586;28;20453;-81
2023/01/30 00:12:48;;;;;;;312.23;299.23;;;3.70;99.90;;;;;;4993037;28;20462;-81
2023/01/30 00:15:15;;;;;;;311.83;299.73;;;3.80;99.90;;;;;;4983792;28;20489;-81
2023/01/30 00:17:42;;;;;;;315.53;302.53;;;3.90;99.90;;;;;;4983964;28;20502;-81
2023/01/30 00:20:10;;;;;;;241.83;231.77;;;4.00;99.90;;;;;;4983514;28;20454;-81
2023/01/30 00:22:37;;;;;;;246.13;236.53;;;4.10;99.90;;;;;;4997281;28;20461;-82
2023/01/30 00:25:04;;;;;;;283.27;271.13;;;4.00;99.90;;;;;;5003267;28;20447;-81
2023/01/30 00:27:31;;;;;;;272.67;262.00;;;4.10;99.90;;;;;;5002605;28;20997;-81
2023/01/30 00:30:01;;;;;;;235.73;225.73;;;4.10;99.90;;;;;;5003371;28;20454;-81
2023/01/30 00:32:27;;;;;;;178.13;169.53;;;4.20;99.90;;;;;;4991829;28;20447;-81
2023/01/30 00:34:54;;;;;;;173.60;165.53;;;4.30;99.90;;;;;;4983606;28;20467;-81
2023/01/30 00:37:21;;;;;;;146.83;140.33;;;4.30;99.90;;;;;;4983328;28;20481;-81
2023/01/30 00:39:47;;;;;;;139.73;132.33;;;4.30;99.90;;;;;;4989954;28;20454;-81
2023/01/30 00:47:55;;;;;;;186.93;178.23;;;4.30;99.90;;;;;;4982846;28;20594;-81
2023/01/30 00:50:22;;;;;;;174.30;165.90;;;4.20;99.90;;;;;;4982759;28;20455;-81
2023/01/30 00:52:48;;;;;;;165.70;157.73;;;4.30;99.90;;;;;;4982579;28;21004;-81
2023/01/30 00:55:15;;;;;;;164.27;155.90;;;4.30;99.90;;;;;;4983023;28;20475;-81
2023/01/30 00:57:44;;;;;;;166.37;158.27;;;4.30;99.90;;;;;;4982982;28;20479;-82
2023/01/30 01:00:15;;;;;;;182.47;173.80;;;4.30;99.90;;;;;;4983108;28;20462;-81
2023/01/30 01:02:42;;;;;;;198.53;189.97;;;4.30;99.90;;;;;;4982270;28;20518;-81
2023/01/30 01:05:09;;;;;;;171.87;163.40;;;4.30;99.90;;;;;;4982126;28;20451;-81
2023/01/30 01:07:36;;;;;;;193.13;183.73;;;4.30;99.90;;;;;;4982735;28;20486;-81
2023/01/30 01:10:02;;;;;;;187.20;178.47;;;4.40;99.90;;;;;;4987866;28;20449;-80
2023/01/30 01:12:29;;;;;;;196.70;187.73;;;4.30;99.90;;;;;;5001499;28;20454;-82
2023/01/30 01:14:56;;;;;;;187.77;178.90;;;4.30;99.90;;;;;;4998511;28;20475;-81
2023/01/30 01:17:24;;;;;;;181.90;173.23;;;4.40;99.90;;;;;;4982342;28;20482;-81
2023/01/30 01:19:51;;;;;;;201.00;191.90;;;4.40;99.90;;;;;;4982396;28;20458;-81
2023/01/30 01:22:17;;;;;;;200.60;191.20;;;4.40;99.90;;;;;;4982706;28;20459;-82
2023/01/30 01:24:44;;;;;;;209.77;200.07;;;4.40;99.90;;;;;;4983523;28;20981;-81
2023/01/30 01:27:11;;;;;;;216.33;206.77;;;4.50;99.90;;;;;;4995701;28;20466;-81
2023/01/30 01:29:38;;;;;;;184.93;177.10;;;4.50;99.90;;;;;;4994305;28;20466;-82
2023/01/30 01:32:05;;;;;;;171.53;163.53;;;4.50;99.90;;;;;;5001528;28;20466;-81
2023/01/30 01:34:33;;;;;;;175.43;166.63;;;4.50;99.90;;;;;;5001632;28;20481;-81
2023/01/30 01:36:59;;;;;;;175.13;166.30;;;4.40;99.90;;;;;;5001750;28;20461;-80
2023/01/30 01:41:00;;;;;;;174.10;166.17;;;4.50;99.90;;;;;;4991936;28;20455;-81
2023/01/30 01:42:12;;;;;;;171.53;163.57;;;4.50;99.90;;;;;;4981198;28;20878;-81
2023/01/30 01:44:58;;;;;;;171.93;163.83;;;4.50;99.90;;;;;;4991608;28;20446;-81
2023/01/30 01:47:25;;;;;;;157.73;150.60;;;4.50;99.90;;;;;;5001559;28;20219;-81
2023/01/30 01:49:53;;;;;;;150.33;143.27;;;4.60;99.90;;;;;;4989715;28;20453;-80
2023/01/30 01:52:22;;;;;;;140.93;133.90;;;4.50;99.90;;;;;;4981476;28;20455;-81
2023/01/30 01:54:52;;;;;;;155.10;147.10;;;4.50;99.90;;;;;;4981771;28;20479;-81
2023/01/30 01:57:23;;;;;;;155.57;147.77;;;4.60;99.90;;;;;;4982387;28;20474;-82
2023/01/30 01:59:52;;;;;;;165.97;158.47;;;4.60;99.90;;;;;;4996578;28;20460;-81
2023/01/30 02:02:20;;;;;;;154.90;146.63;;;4.50;99.90;;;;;;5001250;28;20454;-82
2023/01/30 02:05:05;;;;;;;151.90;143.83;;;4.60;99.90;;;;;;5001370;28;20464;-81
2023/01/30 02:07:36;;;;;;;132.90;126.07;;;4.60;99.90;;;;;;5001340;28;20474;-81
2023/01/30 02:10:04;;;;;;;131.17;124.37;;;4.70;99.90;;;;;;5000681;28;20431;-82
2023/01/30 02:12:32;;;;;;;110.30;104.23;;;4.70;99.90;;;;;;5000750;28;20478;-82
2023/01/30 02:15:00;;;;;;;98.63;92.63;;;4.70;99.90;;;;;;5000864;28;20478;-81
2023/01/30 02:17:27;;;;;;;100.87;95.23;;;4.70;99.90;;;;;;5000948;28;20497;-81
2023/01/30 02:19:59;;;;;;;111.50;105.37;;;4.60;99.90;;;;;;5001010;28;20461;-81
2023/01/30 02:23:05;;;;;;;108.63;102.83;;;4.60;99.90;;;;;;4999877;28;20465;-81
2023/01/30 02:25:59;;;;;;;154.47;147.87;;;4.60;99.90;;;;;;5000524;28;20874;-82
2023/01/30 02:29:04;;;;;;;193.23;185.07;;;4.60;99.90;;;;;;4998687;28;20897;-81
2023/01/30 02:31:40;;;;;;;193.07;184.70;;;4.50;99.90;;;;;;4988661;28;20461;-81
2023/01/30 02:34:19;;;;;;;181.60;173.63;;;4.50;99.90;;;;;;4980609;28;20459;-81
2023/01/30 02:36:58;;;;;;;223.77;214.80;;;4.50;99.90;;;;;;4994043;28;20450;-81
2023/01/30 02:39:38;;;;;;;246.50;237.00;;;4.50;99.90;;;;;;5000853;28;20438;-81
2023/01/30 02:42:14;;;;;;;226.27;217.57;;;4.50;99.90;;;;;;4985131;28;20443;-81
2023/01/30 02:44:50;;;;;;;235.67;225.93;;;4.50;99.90;;;;;;4980599;28;20435;-82
2023/01/30 02:47:24;;;;;;;353.67;338.87;;;4.50;99.90;;;;;;4996537;28;20477;-81
2023/01/30 02:49:55;;;;;;;343.23;330.03;;;4.50;99.90;;;;;;4993198;28;20443;-81
2023/01/30 02:52:23;;;;;;;346.73;331.97;;;4.50;99.90;;;;;;4980614;28;20470;-81
2023/01/30 02:54:50;;;;;;;384.00;369.10;;;4.60;99.90;;;;;;4987740;28;20474;-81
2023/01/30 02:57:26;;;;;;;406.10;389.60;;;4.60;99.90;;;;;;5000600;28;20469;-82
2023/01/30 02:59:56;;;;;;;393.50;377.43;;;4.60;99.90;;;;;;4999868;28;20461;-81
2023/01/30 03:02:43;;;;;;;268.10;258.30;;;4.70;99.90;;;;;;4999314;28;20453;-81
2023/01/30 03:05:34;;;;;;;295.70;283.93;;;4.80;99.90;;;;;;4982333;28;20454;-81
2023/01/30 03:08:11;;;;;;;195.37;187.67;;;4.80;99.90;;;;;;4982098;28;20466;-81
2023/01/30 03:10:47;;;;;;;221.10;211.70;;;4.90;99.90;;;;;;5004145;28;20450;-81
2023/01/30 03:13:19;;;;;;;298.60;286.50;;;4.90;99.90;;;;;;4999631;28;20447;-81
2023/01/30 03:15:51;;;;;;;287.97;276.13;;;4.80;99.90;;;;;;4984709;28;20467;-81
2023/01/30 03:18:20;;;;;;;215.10;206.67;;;5.00;99.90;;;;;;4988337;28;20473;-82
2023/01/30 03:20:47;;;;;;;203.97;195.47;;;4.90;99.90;;;;;;5002798;28;20461;-81
2023/01/30 03:23:14;;;;;;;198.53;190.33;;;5.00;99.90;;;;;;5002527;28;20482;-82
2023/01/30 03:25:46;;;;;;;187.93;180.23;;;5.00;99.90;;;;;;5003517;28;20457;-81
2023/01/30 03:28:15;;;;;;;201.27;192.63;;;4.90;99.90;;;;;;5000878;28;20480;-81
2023/01/30 03:30:42;;;;;;;202.70;193.80;;;4.90;99.90;;;;;;4984412;28;20466;-81
2023/01/30 03:33:09;;;;;;;161.07;152.97;;;5.00;99.90;;;;;;4995721;28;20446;-81
2023/01/30 03:35:37;;;;;;;167.37;159.60;;;5.00;99.90;;;;;;5003323;28;20474;-81
2023/01/30 03:38:04;;;;;;;141.07;133.80;;;5.00;99.90;;;;;;5002969;28;20480;-81
2023/01/30 03:40:32;;;;;;;137.43;131.53;;;5.00;99.90;;;;;;5003262;28;20458;-81
2023/01/30 03:42:58;;;;;;;132.63;126.53;;;5.00;99.90;;;;;;4992555;28;20485;-81
2023/01/30 03:45:25;;;;;;;145.50;139.13;;;5.00;99.90;;;;;;4983490;28;20447;-82
2023/01/30 03:47:52;;;;;;;162.27;154.57;;;5.00;99.90;;;;;;4983045;28;20479;-81
2023/01/30 03:50:19;;;;;;;158.70;151.30;;;5.00;99.90;;;;;;4983459;28;20457;-82
2023/01/30 03:52:47;;;;;;;147.43;140.63;;;5.10;99.90;;;;;;4983155;28;20458;-81
2023/01/30 03:55:14;;;;;;;125.50;119.30;;;5.00;99.90;;;;;;4982848;28;20474;-81
2023/01/30 03:57:40;;;;;;;132.30;126.40;;;5.10;99.90;;;;;;4985092;28;20470;-81
2023/01/30 04:00:08;;;;;;;115.50;109.40;;;5.10;99.90;;;;;;4983237;28;20927;-81
2023/01/30 04:02:37;;;;;;;161.07;153.63;;;5.10;99.90;;;;;;4986843;28;20462;-80
2023/01/30 04:05:04;;;;;;;166.93;159.20;;;5.00;99.90;;;;;;5001128;28;20508;-80
2023/01/30 04:07:31;;;;;;;184.37;176.03;;;5.00;99.90;;;;;;4997198;28;20472;-81
2023/01/30 04:09:59;;;;;;;201.43;193.23;;;5.00;99.90;;;;;;4981472;28;20535;-82
2023/01/30 04:12:26;;;;;;;237.40;227.50;;;5.00;99.90;;;;;;4982050;28;20530;-80
2023/01/30 04:14:52;;;;;;;255.50;244.57;;;5.00;99.90;;;;;;4981636;28;20461;-80
2023/01/30 04:17:19;;;;;;;238.43;228.60;;;5.00;99.90;;;;;;4981853;28;20475;-81
2023/01/30 04:19:46;;;;;;;218.43;209.47;;;5.10;99.90;;;;;;4997595;28;20450;-80
2023/01/30 04:22:13;;;;;;;195.60;187.00;;;5.00;99.90;;;;;;5000353;28;20841;-80
2023/01/30 04:24:39;;;;;;;202.47;193.80;;;5.10;99.90;;;;;;4999805;28;20458;-80
2023/01/30 04:27:08;;;;;;;280.30;268.47;;;5.00;99.90;;;;;;4999635;28;20454;-80
2023/01/30 04:29:35;;;;;;;304.20;291.50;;;5.00;99.90;;;;;;4998208;28;20454;-80
2023/01/30 04:32:01;;;;;;;276.30;265.90;;;5.10;99.90;;;;;;4992818;28;20453;-80
2023/01/30 04:34:28;;;;;;;290.00;278.20;;;5.00;99.90;;;;;;4993477;28;20454;-80
2023/01/30 04:36:55;;;;;;;373.43;358.93;;;5.10;99.90;;;;;;4994637;28;20853;-80
2023/01/30 04:39:22;;;;;;;398.23;382.17;;;5.00;99.90;;;;;;4988712;28;20477;-82
2023/01/30 04:41:48;;;;;;;388.63;373.63;;;5.00;99.90;;;;;;4992400;28;20460;-81
2023/01/30 04:44:16;;;;;;;398.13;382.53;;;4.90;99.90;;;;;;4995261;28;20457;-80
2023/01/30 04:46:43;;;;;;;512.27;490.40;;;5.00;99.90;;;;;;4991430;28;20812;-80
2023/01/30 04:49:10;;;;;;;514.83;493.33;;;5.00;99.90;;;;;;4998927;28;20477;-80
2023/01/30 04:51:37;;;;;;;521.97;500.17;;;5.00;99.90;;;;;;4998663;28;20525;-80
2023/01/30 04:54:05;;;;;;;518.17;496.13;;;5.00;99.90;;;;;;4999199;28;20462;-80
2023/01/30 04:56:32;;;;;;;548.17;523.63;;;5.00;99.90;;;;;;5000140;28;20477;-80
2023/01/30 04:58:58;;;;;;;552.73;527.53;;;5.00;99.90;;;;;;5000179;28;20474;-81
2023/01/30 05:01:32;;;;;;;604.93;575.30;;;5.00;99.90;;;;;;5000086;28;20461;-80
2023/01/30 05:03:59;;;;;;;561.30;535.77;;;5.00;99.90;;;;;;4999523;28;20453;-80
2023/01/30 05:06:26;;;;;;;599.97;569.07;;;5.10;99.90;;;;;;4991336;28;20454;-80
2023/01/30 05:08:54;;;;;;;585.67;557.30;;;5.00;99.90;;;;;;4986875;28;20469;-81
2023/01/30 05:11:22;;;;;;;592.93;563.43;;;5.00;99.90;;;;;;4982636;28;20450;-81
2023/01/30 05:13:48;;;;;;;609.87;578.30;;;5.00;99.90;;;;;;4982806;28;20546;-81
2023/01/30 05:16:16;;;;;;;608.43;577.43;;;5.00;99.90;;;;;;4982268;28;20471;-81
2023/01/30 05:18:45;;;;;;;646.60;608.57;;;5.10;99.90;;;;;;4987958;28;20481;-81
2023/01/30 05:21:14;;;;;;;584.67;554.47;;;5.10;99.90;;;;;;5000531;28;20884;-81
2023/01/30 05:23:41;;;;;;;579.27;550.40;;;5.10;99.90;;;;;;4996050;28;20450;-80
2023/01/30 05:26:07;;;;;;;614.67;582.20;;;5.00;99.90;;;;;;4981865;28;20455;-80
2023/01/30 05:28:35;;;;;;;629.70;596.33;;;5.10;99.90;;;;;;4979708;28;20481;-81
2023/01/30 05:31:02;;;;;;;650.60;614.60;;;5.00;99.90;;;;;;4997070;28;20842;-81
2023/01/30 05:33:29;;;;;;;609.13;579.00;;;5.10;99.90;;;;;;4998999;28;20457;-81
2023/01/30 05:35:58;;;;;;;617.47;586.37;;;5.10;99.90;;;;;;4999746;28;20477;-81
2023/01/30 05:38:25;;;;;;;608.90;578.50;;;5.10;99.90;;;;;;4999103;28;20474;-80
2023/01/30 05:40:59;;;;;;;620.30;588.63;;;5.10;99.90;;;;;;5000970;28;20458;-80
2023/01/30 05:43:25;;;;;;;599.80;570.30;;;5.20;99.90;;;;;;5000452;28;20871;-80
2023/01/30 05:45:53;;;;;;;580.10;551.97;;;5.20;99.90;;;;;;4999411;28;20973;-80
2023/01/30 05:48:20;;;;;;;615.23;583.13;;;5.20;99.90;;;;;;5001339;28;21012;-80
2023/01/30 05:50:47;;;;;;;642.57;606.93;;;5.20;99.90;;;;;;5001481;28;20494;-79
2023/01/30 05:53:15;;;;;;;639.00;604.17;;;5.20;99.90;;;;;;4998192;28;20456;-80
2023/01/30 05:55:43;;;;;;;632.17;598.17;;;5.30;99.90;;;;;;4999711;28;20474;-80
2023/01/30 05:58:10;;;;;;;625.67;591.77;;;5.30;99.90;;;;;;4994445;28;20469;-80
2023/01/30 06:00:37;;;;;;;622.13;588.33;;;5.30;99.90;;;;;;4998053;28;20473;-80
2023/01/30 06:03:04;;;;;;;585.70;556.63;;;5.40;99.90;;;;;;4999551;28;20832;-80
2023/01/30 06:05:30;;;;;;;586.40;557.83;;;5.50;99.90;;;;;;4999532;28;20830;-81
2023/01/30 06:07:57;;;;;;;598.33;568.93;;;5.50;99.90;;;;;;4998703;28;21004;-81
2023/01/30 06:10:25;;;;;;;542.27;517.27;;;5.50;99.90;;;;;;5001015;28;20450;-81
2023/01/30 06:12:52;;;;;;;572.83;544.63;;;5.60;99.90;;;;;;5003296;28;20957;-82
2023/01/30 06:15:18;;;;;;;620.13;586.93;;;5.60;99.90;;;;;;4997570;28;20446;-82
2023/01/30 06:17:45;;;;;;;604.37;572.57;;;5.60;99.90;;;;;;4983730;28;22387;-81
2023/01/30 06:20:12;;;;;;;611.57;578.80;;;5.70;99.90;;;;;;4999991;28;20454;-82
2023/01/30 06:22:39;;;;;;;607.40;576.00;;;5.70;99.90;;;;;;5001427;28;20450;-82
2023/01/30 06:25:07;;;;;;;622.10;588.60;;;5.70;99.90;;;;;;5002621;28;20458;-82
2023/01/30 06:27:35;;;;;;;597.97;567.43;;;5.60;99.90;;;;;;4995699;28;20506;-81
2023/01/30 06:30:02;;;;;;;593.30;562.33;;;5.70;99.90;;;;;;4980926;28;20454;-81
2023/01/30 06:32:29;;;;;;;617.87;584.43;;;5.70;99.90;;;;;;4983517;28;20480;-81
2023/01/30 06:34:56;;;;;;;629.97;595.20;;;5.70;99.90;;;;;;4999527;28;20828;-81
2023/01/30 06:37:22;;;;;;;607.77;574.53;;;5.80;99.90;;;;;;4988176;28;20478;-81
2023/01/30 06:39:49;;;;;;;608.63;576.47;;;5.80;99.90;;;;;;4999072;28;20454;-81
2023/01/30 06:42:16;;;;;;;601.73;570.03;;;5.80;99.90;;;;;;4991093;28;20457;-82
2023/01/30 06:44:44;;;;;;;622.10;588.43;;;5.80;99.90;;;;;;4998199;28;20832;-82
2023/01/30 06:47:11;;;;;;;624.70;590.33;;;5.80;99.90;;;;;;4995442;28;20447;-81
2023/01/30 06:49:37;;;;;;;607.17;575.20;;;5.80;99.90;;;;;;4997755;28;20458;-81
2023/01/30 06:52:04;;;;;;;638.77;601.90;;;5.90;99.90;;;;;;4980323;28;20456;-81
2023/01/30 06:54:31;;;;;;;635.90;599.00;;;5.90;99.90;;;;;;4991362;28;20976;-81
2023/01/30 06:56:58;;;;;;;609.40;578.00;;;5.90;99.90;;;;;;4995107;28;20484;-81
2023/01/30 06:59:24;;;;;;;587.17;557.90;;;5.90;99.90;;;;;;4987833;28;21121;-81
2023/01/30 07:01:52;;;;;;;617.17;583.50;;;6.00;99.90;;;;;;4986056;28;20451;-81
2023/01/30 07:04:19;;;;;;;620.97;587.97;;;5.90;99.90;;;;;;4998706;28;20493;-82
2023/01/30 07:06:46;;;;;;;629.63;594.67;;;5.90;99.90;;;;;;4998455;28;20458;-81
2023/01/30 07:09:13;;;;;;;617.73;585.57;;;5.90;99.90;;;;;;5003751;28;20485;-83
2023/01/30 07:11:40;;;;;;;591.93;561.43;;;5.90;99.90;;;;;;4995428;28;20984;-82
2023/01/30 07:14:06;;;;;;;629.03;594.87;;;5.80;99.90;;;;;;4996207;28;20449;-83
2023/01/30 07:16:33;;;;;;;619.40;586.73;;;5.80;99.90;;;;;;4991051;28;20483;-82
2023/01/30 07:19:01;;;;;;;623.87;590.17;;;5.80;99.90;;;;;;4997199;28;20474;-82
2023/01/30 07:21:28;;;;;;;644.07;607.70;;;5.90;99.90;;;;;;4999741;28;21222;-81
2023/01/30 07:23:55;;;;;;;659.53;619.57;;;5.90;99.90;;;;;;4998711;28;20537;-81
2023/01/30 07:26:21;;;;;;;595.40;565.40;;;5.90;99.90;;;;;;4993516;28;20446;-83
2023/01/30 07:28:48;;;;;;;549.20;523.83;;;6.00;99.90;;;;;;4991654;28;20482;-82
2023/01/30 07:31:15;;;;;;;557.10;529.87;;;6.00;99.90;;;;;;4996176;28;20462;-84
2023/01/30 07:33:41;;;;;;;589.07;556.47;;;6.00;99.90;;;;;;5001298;28;20458;-83
2023/01/30 07:36:10;;;;;;;592.73;560.87;;;5.90;99.90;;;;;;4992469;28;20474;-81
2023/01/30 07:38:36;;;;;;;601.17;569.40;;;6.00;99.90;;;;;;4989104;28;20478;-82
2023/01/30 07:41:03;;;;;;;595.63;564.93;;;6.00;99.90;;;;;;4987481;28;20469;-82
2023/01/30 07:43:30;;;;;;;573.77;545.87;;;6.00;99.90;;;;;;4994969;28;20455;-80
2023/01/30 07:45:57;;;;;;;582.07;553.07;;;6.00;99.90;;;;;;4986467;28;20450;-82
2023/01/30 07:48:23;;;;;;;590.20;559.93;;;6.00;99.90;;;;;;4984828;28;20474;-82
2023/01/30 07:50:50;;;;;;;610.30;578.63;;;6.10;99.90;;;;;;4987367;28;20461;-83
2023/01/30 07:53:18;;;;;;;619.40;584.33;;;6.10;99.90;;;;;;4987382;28;20942;-81
2023/01/30 07:55:45;;;;;;;616.37;583.57;;;6.20;99.90;;;;;;4996827;28;20450;-83
2023/01/30 07:58:13;;;;;;;616.03;582.73;;;6.20;99.90;;;;;;5007982;28;20485;-83
2023/01/30 08:00:40;;;;;;;635.77;600.80;;;6.20;99.90;;;;;;5001451;28;20826;-83
2023/01/30 08:03:11;;;;;;;627.70;593.90;;;6.20;99.90;;;;;;4989648;28;20451;-82
2023/01/30 08:05:37;;;;;;;650.50;611.47;;;6.20;99.90;;;;;;4993768;28;20508;-82
2023/01/30 08:08:04;;;;;;;654.07;615.17;;;6.30;99.90;;;;;;5007606;28;20470;-83
2023/01/30 08:10:32;;;;;;;656.17;615.90;;;6.20;99.90;;;;;;5006801;28;20464;-82
2023/01/30 08:12:59;;;;;;;649.77;611.53;;;6.20;99.90;;;;;;5006362;28;20454;-82
2023/01/30 08:15:26;;;;;;;643.47;604.50;;;6.20;99.90;;;;;;5007361;28;20453;-82
2023/01/30 08:17:56;;;;;;;650.63;610.20;;;6.20;99.90;;;;;;5005416;28;20480;-82
2023/01/30 08:20:23;;;;;;;648.97;602.92;;;6.20;99.90;;;;;;4988386;28;20720;-83
2023/01/30 08:22:50;;;;;;;664.73;619.70;;;6.20;99.90;;;;;;4989032;28;20809;-83
2023/01/30 08:25:17;;;;;;;683.30;634.10;;;6.10;99.90;;;;;;4988320;28;20454;-83
2023/01/30 08:27:45;;;;;;;684.97;637.40;;;6.10;99.90;;;;;;4988530;28;20215;-83
2023/01/30 08:30:13;;;;;;;688.80;644.07;;;6.10;99.90;;;;;;4988395;28;20462;-83
2023/01/30 08:32:39;;;;;;;668.83;625.30;;;6.10;99.90;;;;;;4986456;28;20491;-83
2023/01/30 08:35:07;;;;;;;664.87;623.97;;;6.10;99.90;;;;;;4986485;28;20466;-83
2023/01/30 08:37:34;;;;;;;661.00;619.90;;;6.20;99.90;;;;;;4986985;28;20491;-83
2023/01/30 08:40:01;;;;;;;654.63;613.23;;;6.20;99.90;;;;;;4986816;28;21099;-84
2023/01/30 08:42:27;;;;;;;663.57;621.57;;;6.20;99.90;;;;;;4986326;28;20462;-82
2023/01/30 08:44:55;;;;;;;652.23;612.33;;;6.20;99.90;;;;;;4986226;28;20462;-83
2023/01/30 08:47:22;;;;;;;641.17;603.27;;;6.30;99.90;;;;;;4985654;28;20485;-83
2023/01/30 08:49:50;;;;;;;623.37;588.33;;;6.50;99.90;;;;;;4985891;28;20455;-83
2023/01/30 08:52:16;;;;;;;610.60;577.10;;;6.50;99.90;;;;;;4985890;28;20451;-83
2023/01/30 08:54:43;;;;;;;605.63;574.33;;;6.70;99.90;;;;;;4984551;28;20455;-84
2023/01/30 08:57:10;;;;;;;596.33;565.87;;;6.60;99.90;;;;;;4985044;28;21043;-83
2023/01/30 08:59:37;;;;;;;587.57;558.07;;;6.60;99.90;;;;;;4983485;28;20463;-83
2023/01/30 09:02:05;;;;;;;579.33;550.60;;;6.70;99.90;;;;;;4981008;28;20443;-82
2023/01/30 09:04:32;;;;;;;533.63;509.50;;;6.60;99.90;;;;;;4983340;28;20451;-83
2023/01/30 09:06:59;;;;;;;519.37;496.50;;;6.70;99.90;;;;;;4983482;28;20966;-82
2023/01/30 09:09:26;;;;;;;482.47;461.23;;;6.70;99.90;;;;;;4984884;28;20455;-83
2023/01/30 09:11:52;;;;;;;497.70;475.63;;;6.70;99.90;;;;;;4984449;28;20462;-84
2023/01/30 09:14:19;;;;;;;489.33;468.03;;;6.70;99.90;;;;;;4984338;28;20463;-83
2023/01/30 09:16:46;;;;;;;456.37;437.67;;;6.80;99.90;;;;;;4983736;28;20479;-83
2023/01/30 09:19:15;;;;;;;393.10;376.73;;;6.80;99.90;;;;;;4984674;28;20854;-83
2023/01/30 09:21:41;;;;;;;386.90;370.87;;;6.90;99.90;;;;;;4983947;28;20456;-83
2023/01/30 09:24:08;;;;;;;405.37;388.47;;;7.00;99.90;;;;;;4983601;28;20455;-83
2023/01/30 09:26:35;;;;;;;339.33;326.10;;;7.10;99.90;;;;;;4983576;28;20459;-83
2023/01/30 09:29:03;;;;;;;258.93;248.87;;;7.20;99.90;;;;;;4985903;28;20483;-82
2023/01/30 09:31:29;;;;;;;303.00;291.30;;;7.10;99.90;;;;;;4984084;28;20462;-84
2023/01/30 09:33:56;;;;;;;257.37;248.07;;;7.00;99.90;;;;;;4983222;28;20851;-83
2023/01/30 09:36:24;;;;;;;235.13;226.10;;;7.10;99.90;;;;;;4983551;28;20461;-83
2023/01/30 09:38:51;;;;;;;273.33;263.03;;;7.10;99.90;;;;;;4983201;28;20479;-81
2023/01/30 09:41:35;;;;;;;227.27;218.60;;;7.10;99.90;;;;;;4983878;28;20462;-84
2023/01/30 09:44:29;;;;;;;198.37;191.03;;;7.10;99.90;;;;;;4983778;28;20447;-83
2023/01/30 09:47:05;;;;;;;165.30;159.20;;;7.20;99.90;;;;;;4983741;28;20539;-84
2023/01/30 09:49:44;;;;;;;78.57;75.17;;;7.20;99.90;;;;;;4985012;28;20827;-83
2023/01/30 09:52:24;;;;;;;49.37;47.07;;;7.30;99.90;;;;;;4984126;28;20447;-83
2023/01/30 09:54:56;;;;;;;59.40;56.90;;;7.20;99.90;;;;;;4983764;28;20470;-83
2023/01/30 09:57:24;;;;;;;27.77;25.60;;;7.30;99.90;;;;;;4983074;28;20996;-81
2023/01/30 09:59:57;;;;;;;41.40;38.13;;;7.40;99.90;;;;;;4982471;28;20203;-80
2023/01/30 10:02:41;;;;;;;29.93;27.93;;;7.50;99.90;;;;;;4982887;28;20466;-80
2023/01/30 10:05:11;;;;;;;15.27;13.83;;;7.60;99.90;;;;;;4981735;28;20462;-79
2023/01/30 10:07:48;;;;;;;15.93;7.60;;;7.70;99.90;;;;;;4983701;28;20467;-82
2023/01/30 10:10:22;;;;;;;15.70;14.43;;;7.70;99.90;;;;;;4984157;28;20439;-83
2023/01/30 10:13:00;;;;;;;18.93;17.33;;;7.90;99.90;;;;;;4982185;28;20444;-82
2023/01/30 10:15:40;;;;;;;28.17;26.60;;;8.00;99.90;;;;;;4981937;28;20439;-82
2023/01/30 10:18:35;;;;;;;10.70;9.03;;;8.10;99.90;;;;;;4981392;28;20493;-81
2023/01/30 10:21:11;;;;;;;13.17;3.20;;;8.00;99.90;;;;;;4964983;28;20969;-83
2023/01/30 10:24:05;;;;;;;8.10;3.83;;;8.00;99.90;;;;;;4980664;28;20449;-79
2023/01/30 10:26:32;;;;;;;14.83;2.93;;;8.00;99.90;;;;;;4980226;28;20436;-81
2023/01/30 10:29:04;;;;;;;14.00;4.60;;;8.00;99.90;;;;;;4980128;28;20688;-79
2023/01/30 10:31:40;;;;;;;11.13;3.63;;;8.00;99.90;;;;;;4980450;28;20439;-80
2023/01/30 10:34:12;;;;;;;15.30;3.97;;;8.00;99.90;;;;;;4980631;28;20443;-81
2023/01/30 10:36:44;;;;;;;8.97;3.57;;;7.90;99.90;;;;;;4980619;28;20435;-80
2023/01/30 10:39:24;;;;;;;7.80;2.90;;;7.80;99.90;;;;;;4980396;28;20474;-79
2023/01/30 10:41:57;;;;;;;11.17;3.03;;;7.90;99.90;;;;;;4980903;28;20445;-80
2023/01/30 10:44:24;;;;;;;11.90;5.67;;;7.90;99.90;;;;;;4979870;28;20461;-80
2023/01/30 10:47:23;;;;;;;16.23;4.03;;;8.00;99.90;;;;;;4979033;28;20496;-80
2023/01/30 10:49:53;;;;;;;11.23;3.07;;;8.00;99.90;;;;;;4979972;28;20489;-81
2023/01/30 10:52:29;;;;;;;12.73;2.70;;;8.10;99.90;;;;;;4980246;28;20451;-81
2023/01/30 10:55:06;;;;;;;13.80;4.03;;;8.00;99.90;;;;;;4980728;28;20435;-81
2023/01/30 10:57:45;;;;;;;13.73;3.53;;;7.90;99.90;;;;;;4979878;28;20460;-81
2023/01/30 11:00:19;;;;;;;13.70;2.97;;;7.80;99.90;;;;;;4979890;28;20707;-81
2023/01/30 11:02:58;;;;;;;11.73;2.80;;;7.90;99.90;;;;;;4979841;28;20462;-80
2023/01/30 11:05:28;;;;;;;13.90;3.00;;;7.80;99.90;;;;;;4981245;28;20475;-83
2023/01/30 11:07:55;;;;;;;13.80;3.50;;;7.70;99.90;;;;;;4980081;28;20471;-81
2023/01/30 11:10:26;;;;;;;12.87;4.20;;;7.70;99.90;;;;;;4980255;28;20858;-82
2023/01/30 11:12:55;;;;;;;17.00;3.60;;;7.60;99.90;;;;;;4979685;28;20466;-80
2023/01/30 11:15:23;;;;;;;28.37;4.30;;;7.50;99.90;;;;;;4979354;28;20467;-81
2023/01/30 11:17:50;;;;;;;25.70;2.73;;;7.60;99.90;;;;;;4980417;28;20482;-83
2023/01/30 11:20:20;;;;;;;19.67;3.20;;;7.50;99.90;;;;;;4981005;28;20462;-81
2023/01/30 11:22:48;;;;;;;10.97;3.83;;;7.50;99.90;;;;;;4980382;28;20463;-81
2023/01/30 11:25:18;;;;;;;13.63;3.03;;;7.50;99.90;;;;;;4981321;28;20465;-81
2023/01/30 11:27:53;;;;;;;7.87;2.37;;;7.50;99.90;;;;;;4984136;28;20467;-81
2023/01/30 11:30:22;;;;;;;19.43;4.60;;;7.50;99.90;;;;;;4984458;28;20465;-81
2023/01/30 11:32:50;;;;;;;13.33;2.83;;;7.50;99.90;;;;;;4984125;28;20509;-84
2023/01/30 11:35:29;;;;;;;7.40;1.70;;;7.50;99.90;;;;;;4992682;28;20449;-81
2023/01/30 11:38:12;;;;;;;11.97;2.30;;;7.50;99.90;;;;;;5002887;28;20489;-81
2023/01/30 11:40:40;;;;;;;12.23;2.67;;;7.60;99.90;;;;;;5003381;28;20818;-81
2023/01/30 11:43:12;;;;;;;6.73;2.50;;;7.60;99.90;;;;;;5002962;28;20454;-82
2023/01/30 11:45:41;;;;;;;6.80;3.10;;;7.70;99.90;;;;;;5003340;28;20438;-82
2023/01/30 11:48:15;;;;;;;7.63;2.90;;;7.70;99.90;;;;;;5003379;28;20835;-82
2023/01/30 11:50:45;;;;;;;12.50;2.97;;;7.80;99.90;;;;;;5002744;28;20445;-81
2023/01/30 11:53:21;;;;;;;10.37;2.30;;;7.80;99.90;;;;;;5003115;28;20453;-82
2023/01/30 11:55:48;;;;;;;24.23;3.10;;;7.80;99.90;;;;;;5002912;28;20438;-82
2023/01/30 11:58:18;;;;;;;14.23;2.93;;;7.70;99.90;;;;;;5002614;28;20485;-82
2023/01/30 12:00:48;;;;;;;12.87;3.53;;;7.80;99.90;;;;;;5002667;28;20854;-82
2023/01/30 12:03:18;;;;;;;13.73;3.10;;;7.90;99.90;;;;;;5001943;28;20438;-82
2023/01/30 12:05:46;;;;;;;19.23;2.90;;;7.80;99.90;;;;;;5002435;28;20508;-82
2023/01/30 12:08:23;;;;;;;9.77;3.30;;;7.90;99.90;;;;;;5002457;28;20474;-82
2023/01/30 12:10:55;;;;;;;9.10;2.63;;;7.90;99.90;;;;;;5002309;28;20489;-82
2023/01/30 12:13:30;;;;;;;16.23;3.03;;;7.80;99.90;;;;;;5002230;28;20492;-82
2023/01/30 12:16:07;;;;;;;8.97;3.00;;;7.70;99.90;;;;;;5003140;28;20437;-83
2023/01/30 12:18:38;;;;;;;6.50;2.10;;;7.60;99.90;;;;;;5001746;28;20490;-83
2023/01/30 12:21:15;;;;;;;11.33;2.70;;;7.60;99.90;;;;;;5003083;28;20450;-83
2023/01/30 12:23:46;;;;;;;11.43;2.53;;;7.50;99.90;;;;;;5002115;28;20517;-81
2023/01/30 12:26:15;;;;;;;6.77;1.63;;;7.50;99.90;;;;;;5001800;28;20465;-81
2023/01/30 12:28:51;;;;;;;15.20;2.23;;;7.60;99.90;;;;;;5002943;28;20477;-82
2023/01/30 12:31:22;;;;;;;10.60;2.77;;;7.60;99.90;;;;;;5004469;28;20453;-81
2023/01/30 12:33:49;;;;;;;13.90;3.10;;;7.60;99.90;;;;;;5002941;28;20454;-82
2023/01/30 12:36:25;;;;;;;12.87;3.90;;;7.50;99.90;;;;;;5003191;28;20979;-83
2023/01/30 12:39:11;;;;;;;11.40;3.20;;;7.50;99.90;;;;;;5003391;28;20561;-82
2023/01/30 12:41:56;;;;;;;13.47;2.80;;;7.70;99.90;;;;;;5003227;28;20811;-82